Time;durP1;ratioP1;P1;durP2;ratioP2;P2;SDS_P1;SDS_P2;PMS_P1;PMS_P2;Temp;Humidity;BMP_temperature;BMP_pressure;BME280_temperature;BME280_humidity;BME280_pressure;Samples;Min_cycle;Max_cycle;Signal;HPM_P1;HPM_P2
2021/11/28 00:03:32;;;;;;;28.13;17.67;;;;;;;2.21;100.00;99262.59;10592436;27;20058;-84
2021/11/28 00:08:59;;;;;;;29.33;17.60;;;;;;;2.23;100.00;99270.31;10623538;27;20055;-84
2021/11/28 00:19:04;;;;;;;33.03;19.70;;;;;;;2.22;100.00;99271.13;10580493;28;20048;-82
2021/11/28 00:24:06;;;;;;;35.55;18.33;;;;;;;2.23;100.00;99268.63;10578768;28;20127;-84
2021/11/28 00:29:09;;;;;;;28.38;17.63;;;;;;;2.27;100.00;99274.63;10580202;28;20052;-84
2021/11/28 00:34:10;;;;;;;36.60;19.13;;;;;;;2.29;100.00;99283.19;10603777;27;20051;-84
2021/11/28 00:39:12;;;;;;;30.55;18.83;;;;;;;2.31;100.00;99284.06;10601573;27;20054;-84
2021/11/28 00:44:13;;;;;;;30.42;17.70;;;;;;;2.22;100.00;99282.19;10579753;28;20158;-84
2021/11/28 00:49:16;;;;;;;30.88;18.35;;;;;;;2.23;100.00;99271.16;10578094;28;20062;-84
2021/11/28 00:54:18;;;;;;;31.15;18.90;;;;;;;2.22;100.00;99279.66;10577981;28;20056;-84
2021/11/28 00:59:19;;;;;;;29.85;17.98;;;;;;;2.28;100.00;99277.22;10585177;27;20529;-83
2021/11/28 01:04:21;;;;;;;30.08;18.17;;;;;;;2.23;100.00;99286.47;10592787;27;20043;-84
2021/11/28 01:09:24;;;;;;;30.45;19.40;;;;;;;2.21;100.00;99292.34;10578202;28;20507;-84
2021/11/28 01:14:26;;;;;;;32.03;19.17;;;;;;;2.25;100.00;99297.56;10598323;27;20399;-84
2021/11/28 01:19:28;;;;;;;30.73;18.08;;;;;;;2.18;100.00;99302.50;10586003;27;20217;-84
2021/11/28 01:24:30;;;;;;;26.98;17.23;;;;;;;2.18;100.00;99305.03;10591143;28;20491;-83
2021/11/28 01:29:32;;;;;;;31.60;18.85;;;;;;;2.17;100.00;99314.38;10576786;28;20055;-83
2021/11/28 01:34:33;;;;;;;32.33;19.33;;;;;;;2.20;100.00;99327.19;10600914;28;20047;-83
2021/11/28 01:39:35;;;;;;;32.65;19.83;;;;;;;2.20;100.00;99323.78;10584266;28;20047;-84
2021/11/28 01:44:37;;;;;;;28.27;17.25;;;;;;;2.27;100.00;99334.19;10579434;28;20084;-84
2021/11/28 01:49:38;;;;;;;30.40;18.92;;;;;;;2.25;100.00;99337.50;10603784;27;20051;-84
2021/11/28 01:54:40;;;;;;;35.38;21.70;;;;;;;2.22;100.00;99343.41;10595168;27;20050;-84
2021/11/28 01:59:41;;;;;;;32.67;20.85;;;;;;;2.19;100.00;99345.88;10588920;27;20047;-84
2021/11/28 02:04:43;;;;;;;32.67;19.05;;;;;;;2.21;100.00;99356.97;10605395;27;20051;-84
2021/11/28 02:09:45;;;;;;;31.80;20.33;;;;;;;2.21;100.00;99356.97;10594453;27;20047;-84
2021/11/28 02:14:47;;;;;;;39.40;21.60;;;;;;;2.17;100.00;99347.53;10612230;27;20388;-83
2021/11/28 02:19:49;;;;;;;35.15;19.55;;;;;;;2.16;100.00;99361.13;10615861;27;20051;-84
2021/11/28 02:24:50;;;;;;;32.97;19.98;;;;;;;2.20;100.00;99355.25;10585088;27;20063;-84
2021/11/28 02:29:52;;;;;;;31.52;18.88;;;;;;;2.19;100.00;99353.53;10593676;27;20051;-84
2021/11/28 02:34:53;;;;;;;27.50;16.52;;;;;;;2.11;100.00;99361.00;10583787;28;20058;-83
2021/11/28 02:39:57;;;;;;;26.83;16.55;;;;;;;2.16;100.00;99355.16;10612717;27;20058;-83
2021/11/28 02:44:58;;;;;;;28.25;17.65;;;;;;;2.15;100.00;99361.94;10584274;28;20048;-84
2021/11/28 02:50:00;;;;;;;33.15;19.33;;;;;;;2.14;100.00;99362.75;10583405;28;20056;-84
2021/11/28 02:55:03;;;;;;;31.13;19.05;;;;;;;2.20;100.00;99360.34;10583912;28;20056;-83
2021/11/28 03:00:06;;;;;;;32.70;18.88;;;;;;;2.14;100.00;99362.75;10592753;27;20058;-84
2021/11/28 03:05:09;;;;;;;29.25;18.85;;;;;;;2.09;100.00;99370.28;10581306;28;20040;-84
2021/11/28 03:10:37;;;;;;;31.60;19.83;;;;;;;2.13;100.00;99368.69;10611493;27;20458;-83
2021/11/28 03:15:38;;;;;;;33.08;19.60;;;;;;;2.15;100.00;99367.03;10582320;28;20067;-84
2021/11/28 03:20:41;;;;;;;33.83;19.00;;;;;;;2.12;100.00;99372.06;10597136;27;20051;-84
2021/11/28 03:25:43;;;;;;;27.13;17.55;;;;;;;2.19;100.00;99384.16;10595181;27;20054;-83
2021/11/28 03:30:47;;;;;;;34.47;19.75;;;;;;;2.09;100.00;99377.09;10582908;28;20060;-83
2021/11/28 03:35:50;;;;;;;37.42;20.25;;;;;;;2.06;100.00;99383.00;10582730;28;20407;-83
2021/11/28 03:40:51;;;;;;;35.72;20.00;;;;;;;2.08;100.00;99383.00;10581619;28;20062;-84
2021/11/28 03:45:53;;;;;;;36.83;20.20;;;;;;;2.07;100.00;99391.50;10594217;27;20051;-83
2021/11/28 03:50:55;;;;;;;35.45;20.90;;;;;;;2.07;100.00;99383.84;10567024;28;20074;-83
2021/11/28 03:56:00;;;;;;;34.60;19.52;;;;;;;2.07;100.00;99387.25;10585493;27;20327;-84
2021/11/28 04:01:06;;;;;;;34.08;19.70;;;;;;;2.07;100.00;99383.84;10582044;28;20555;-84
2021/11/28 04:06:08;;;;;;;38.05;21.45;;;;;;;2.07;100.00;99381.31;10608770;27;20052;-83
2021/11/28 04:11:11;;;;;;;39.97;23.23;;;;;;;2.03;100.00;99385.44;10579791;28;20058;-84
2021/11/28 04:16:12;;;;;;;34.85;21.45;;;;;;;2.07;100.00;99378.75;10595122;27;20484;-84
2021/11/28 04:21:14;;;;;;;35.83;20.15;;;;;;;2.08;100.00;99390.66;10592342;27;20138;-84
2021/11/28 04:26:16;;;;;;;39.03;22.27;;;;;;;2.05;100.00;99383.81;10602355;27;20043;-84
2021/11/28 04:31:18;;;;;;;39.38;22.23;;;;;;;2.03;100.00;99389.69;10590350;27;20051;-84
2021/11/28 04:36:19;;;;;;;42.45;22.08;;;;;;;2.02;100.00;99386.28;10578937;28;20047;-84
2021/11/28 04:41:21;;;;;;;39.42;22.10;;;;;;;2.03;100.00;99392.25;10587309;27;20487;-83
2021/11/28 04:46:24;;;;;;;40.35;22.63;;;;;;;1.98;100.00;99396.34;10589656;27;20043;-83
2021/11/28 04:51:25;;;;;;;39.83;23.70;;;;;;;1.97;100.00;99395.50;10591284;27;20065;-84
2021/11/28 04:56:27;;;;;;;33.70;21.20;;;;;;;2.01;100.00;99402.41;10585557;27;20066;-83
2021/11/28 05:01:29;;;;;;;43.85;23.55;;;;;;;1.91;100.00;99413.19;10586925;27;20437;-83
2021/11/28 05:06:31;;;;;;;39.92;23.38;;;;;;;1.92;100.00;99414.91;10578980;28;20043;-84
2021/11/28 05:11:34;;;;;;;37.38;22.38;;;;;;;1.86;100.00;99410.50;10578008;28;20062;-84
2021/11/28 05:16:37;;;;;;;41.65;23.27;;;;;;;1.93;100.00;99416.66;10578028;28;20059;-83
2021/11/28 05:21:39;;;;;;;39.00;22.15;;;;;;;1.86;100.00;99402.88;10574397;27;20051;-77
2021/11/28 05:26:42;;;;;;;35.50;21.23;;;;;;;1.63;100.00;99410.72;10594325;28;20039;-77
2021/11/28 05:31:43;;;;;;;27.30;18.73;;;;;;;1.41;100.00;99420.31;10590061;28;20401;-77
2021/11/28 05:36:45;;;;;;;30.83;18.98;;;;;;;1.36;100.00;99429.53;10598137;28;20472;-77
2021/11/28 05:41:47;;;;;;;25.50;16.13;;;;;;;1.10;100.00;99433.88;10612573;28;20050;-78
2021/11/28 05:46:48;;;;;;;34.95;17.60;;;;;;;0.98;100.00;99436.94;10592167;28;20039;-77
2021/11/28 05:51:50;;;;;;;31.10;16.90;;;;;;;0.96;100.00;99446.19;10615029;28;20054;-78
2021/11/28 05:56:52;;;;;;;30.80;16.77;;;;;;;0.90;100.00;99457.88;10608091;28;20051;-77
2021/11/28 06:01:55;;;;;;;25.13;16.13;;;;;;;0.87;100.00;99453.56;10590619;28;20055;-78
2021/11/28 06:06:57;;;;;;;30.42;16.45;;;;;;;0.76;100.00;99454.91;10588385;28;20044;-77
2021/11/28 06:11:59;;;;;;;324.90;38.45;;;;;;;0.65;100.00;99476.59;10591176;28;20550;-77
2021/11/28 06:17:02;;;;;;;153.73;24.13;;;;;;;0.37;100.00;99480.78;10591041;28;20055;-77
2021/11/28 06:22:06;;;;;;;241.32;29.00;;;;;;;0.43;100.00;99472.50;10591696;28;20039;-77
2021/11/28 06:27:10;;;;;;;90.13;17.52;;;;;;;0.35;100.00;99479.88;10601432;28;20050;-77
2021/11/28 06:32:12;;;;;;;82.20;16.98;;;;;;;0.22;100.00;99473.50;10602162;27;20051;-77
2021/11/28 06:37:14;;;;;;;119.25;19.10;;;;;;;0.14;100.00;99484.25;10599211;27;20047;-77
2021/11/28 06:42:36;;;;;;;34.55;13.00;;;;;;;0.04;100.00;99493.22;10613548;27;20043;-77
2021/11/28 06:47:38;;;;;;;53.42;14.00;;;;;;;-0.16;100.00;99499.31;10613477;27;20516;-76
2021/11/28 06:52:40;;;;;;;72.43;14.85;;;;;;;-0.14;100.00;99516.31;10587239;27;20055;-76
2021/11/28 06:57:42;;;;;;;51.42;14.68;;;;;;;-0.02;100.00;99506.59;10601161;27;20039;-76
2021/11/28 07:02:43;;;;;;;29.05;15.60;;;;;;;0.24;100.00;99525.31;10620343;27;20052;-77
2021/11/28 07:07:45;;;;;;;48.75;20.65;;;;;;;0.44;100.00;99517.47;10571460;28;20116;-76
2021/11/28 07:12:46;;;;;;;128.20;28.00;;;;;;;0.60;100.00;99523.94;10584665;28;20134;-77
2021/11/28 07:17:48;;;;;;;153.25;31.60;;;;;;;0.71;100.00;99523.47;10612070;27;20074;-77
2021/11/28 07:22:51;;;;;;;157.32;31.73;;;;;;;0.67;100.00;99539.44;10592874;27;20051;-77
2021/11/28 07:27:53;;;;;;;120.10;28.38;;;;;;;0.66;100.00;99542.81;10591813;27;20039;-77
2021/11/28 07:32:55;;;;;;;97.22;23.38;;;;;;;0.57;100.00;99547.59;10622140;27;20062;-77
2021/11/28 07:37:57;;;;;;;54.10;19.02;;;;;;;0.63;100.00;99546.94;10622171;27;20050;-77
2021/11/28 07:43:00;;;;;;;112.38;26.25;;;;;;;0.56;100.00;99550.94;10604057;27;20057;-77
2021/11/28 07:48:02;;;;;;;112.63;25.27;;;;;;;0.61;100.00;99566.38;10610314;27;20505;-77
2021/11/28 07:53:04;;;;;;;62.25;23.90;;;;;;;0.61;100.00;99566.38;10624414;27;20399;-77
2021/11/28 07:58:05;;;;;;;78.22;24.25;;;;;;;0.54;100.00;99578.03;10605310;27;20061;-77
2021/11/28 08:03:07;;;;;;;86.65;25.75;;;;;;;0.57;100.00;99378.81;10589308;27;20047;-77
2021/11/28 08:08:10;;;;;;;51.80;21.02;;;;;;;0.62;100.00;99390.84;10600261;27;20082;-76
2021/11/28 08:13:13;;;;;;;36.80;18.63;;;;;;;0.60;100.00;99400.13;10596971;27;20481;-77
2021/11/28 08:18:15;;;;;;;49.85;20.50;;;;;;;0.60;100.00;99415.41;10588598;27;20127;-77
2021/11/28 08:23:21;;;;;;;48.28;19.23;;;;;;;0.61;100.00;99412.03;10576186;27;20138;-76
2021/11/28 08:28:23;;;;;;;44.67;21.67;;;;;;;0.68;100.00;99419.06;10600594;27;20150;-75
2021/11/28 08:33:25;;;;;;;68.95;21.98;;;;;;;0.65;100.00;99421.50;10597190;27;20059;-76
2021/11/28 08:38:26;;;;;;;61.22;24.02;;;;;;;0.75;100.00;99430.28;10607469;27;20047;-76
2021/11/28 08:43:28;;;;;;;63.40;21.50;;;;;;;0.73;100.00;99445.47;10579290;27;20207;-76
2021/11/28 08:48:30;;;;;;;50.85;18.92;;;;;;;0.73;100.00;99440.38;10584747;27;20043;-76
2021/11/28 08:53:36;;;;;;;91.72;22.48;;;;;;;0.67;100.00;99442.75;10593175;27;20058;-76
2021/11/28 08:58:38;;;;;;;36.25;17.65;;;;;;;0.94;100.00;99437.66;10597345;27;20265;-76
2021/11/28 09:03:39;;;;;;;41.33;15.52;;;;;;;0.92;100.00;99436.75;10604201;27;20050;-76
2021/11/28 09:08:41;;;;;;;40.58;17.02;;;;;;;1.00;100.00;99442.91;10584786;27;20048;-76
2021/11/28 09:13:43;;;;;;;31.10;16.60;;;;;;;1.21;100.00;99445.25;10587798;27;20058;-76
2021/11/28 09:18:49;;;;;;;41.08;18.98;;;;;;;1.19;100.00;99449.44;10576874;28;20059;-76
2021/11/28 09:29:11;;;;;;;27.90;16.08;;;;;;;1.66;100.00;99446.50;10614673;27;20051;-76
2021/11/28 09:34:13;;;;;;;23.00;11.88;;;;;;;1.88;100.00;99455.59;10584755;27;20043;-76
2021/11/28 09:39:15;;;;;;;23.55;14.40;;;;;;;1.89;100.00;99452.22;10600275;28;20588;-76
2021/11/28 09:44:38;;;;;;;23.17;15.07;;;;;;;2.27;100.00;99435.34;10606109;28;20047;-76
2021/11/28 09:49:44;;;;;;;27.17;16.77;;;;;;;2.47;100.00;99444.38;10601645;28;20407;-76
2021/11/28 09:54:47;;;;;;;24.88;15.07;;;;;;;2.55;100.00;99444.53;10592181;28;20074;-76
2021/11/28 09:59:51;;;;;;;26.25;14.10;;;;;;;2.58;100.00;99445.47;10595029;28;20047;-76
2021/11/28 10:04:55;;;;;;;24.45;14.43;;;;;;;2.64;100.00;99457.53;10600127;27;20047;-76
2021/11/28 10:09:58;;;;;;;29.05;17.35;;;;;;;2.89;100.00;99476.81;10585274;28;20464;-76
2021/11/28 10:15:02;;;;;;;24.50;15.25;;;;;;;2.92;100.00;99503.31;10612244;27;20513;-77
2021/11/28 10:20:08;;;;;;;30.52;16.40;;;;;;;2.99;100.00;99519.63;10605367;27;20410;-76
2021/11/28 10:25:17;;;;;;;26.58;15.90;;;;;;;2.98;100.00;99537.50;10595764;27;20059;-76
2021/11/28 10:30:33;;;;;;;29.40;17.42;;;;;;;2.99;100.00;99628.63;10604526;27;20055;-76
2021/11/28 10:35:37;;;;;;;32.15;18.90;;;;;;;3.04;100.00;99627.91;10592399;27;20074;-76
2021/11/28 10:40:44;;;;;;;27.67;16.13;;;;;;;2.84;100.00;99626.56;10581149;28;20047;-76
2021/11/28 10:45:49;;;;;;;25.58;16.48;;;;;;;2.93;100.00;99632.75;10592918;27;20067;-76
2021/11/28 10:50:52;;;;;;;29.45;16.70;;;;;;;3.04;100.00;99621.94;10594769;27;20406;-76
2021/11/28 10:55:58;;;;;;;27.88;16.30;;;;;;;3.17;100.00;99626.50;10623189;27;20479;-76
2021/11/28 11:01:08;;;;;;;36.03;19.23;;;;;;;3.24;100.00;99632.66;10580345;28;20138;-77
2021/11/28 11:06:23;;;;;;;30.27;17.98;;;;;;;3.55;100.00;99636.78;10598644;27;20048;-77
2021/11/28 11:11:26;;;;;;;26.90;15.48;;;;;;;3.54;100.00;99637.63;10581035;28;20055;-83
2021/11/28 11:16:34;;;;;;;25.67;14.60;;;;;;;3.43;100.00;99650.16;10581503;28;20047;-83
2021/11/28 11:22:06;;;;;;;26.08;15.43;;;;;;;3.62;100.00;99654.00;10579502;28;20051;-83
2021/11/28 11:27:16;;;;;;;24.52;13.63;;;;;;;3.65;100.00;99662.59;10604295;27;20046;-83
2021/11/28 11:32:24;;;;;;;23.67;13.38;;;;;;;4.02;100.00;99680.47;10592927;27;20052;-83
2021/11/28 11:37:28;;;;;;;20.55;9.23;;;;;;;3.98;100.00;99677.00;10580054;28;20139;-83
2021/11/28 11:42:33;;;;;;;12.37;7.57;;;;;;;3.95;100.00;99657.31;10582136;27;20073;-84
2021/11/28 11:47:39;;;;;;;10.18;6.93;;;;;;;4.04;100.00;99666.03;10582212;27;20043;-84
2021/11/28 11:52:40;;;;;;;36.25;19.10;;;;;;;3.97;100.00;99683.81;10580060;28;20050;-83
2021/11/28 11:58:24;;;;;;;7.82;5.05;;;;;;;3.92;100.00;99680.28;10593180;27;20047;-84
2021/11/28 12:03:26;;;;;;;9.57;5.68;;;;;;;3.85;100.00;99688.63;10586002;27;20106;-84
2021/11/28 12:08:29;;;;;;;9.20;5.75;;;;;;;3.93;100.00;99696.50;10608294;27;20054;-84
2021/11/28 12:13:31;;;;;;;8.23;5.57;;;;;;;3.86;100.00;99703.16;10608844;27;20127;-84
2021/11/28 12:18:37;;;;;;;8.75;4.97;;;;;;;3.90;100.00;99698.97;10578218;28;20047;-84
2021/11/28 12:23:44;;;;;;;5.10;3.15;;;;;;;3.77;100.00;99700.38;10593526;27;20058;-82
2021/11/28 12:28:46;;;;;;;3.47;2.38;;;;;;;3.83;100.00;99700.53;10603908;27;20058;-82
2021/11/28 12:33:49;;;;;;;2.78;1.75;;;;;;;3.74;100.00;99705.41;10587285;27;20076;-83
2021/11/28 12:38:51;;;;;;;2.28;1.75;;;;;;;3.73;100.00;99704.56;10577647;28;20051;-83
2021/11/28 12:44:07;;;;;;;2.60;1.15;;;;;;;3.66;100.00;99705.25;10577179;28;20086;-81
2021/11/28 12:49:34;;;;;;;2.03;1.10;;;;;;;3.62;100.00;99708.56;10576918;28;20052;-81
2021/11/28 12:55:09;;;;;;;1.00;0.50;;;;;;;3.69;100.00;99709.59;10577335;28;20060;-81
2021/11/28 13:00:22;;;;;;;0.40;0.40;;;;;;;3.59;100.00;99711.06;10576703;28;20074;-75
2021/11/28 13:05:36;;;;;;;0.60;0.60;;;;;;;3.53;100.00;99708.34;10611039;27;20491;-75
2021/11/28 13:10:39;;;;;;;1.95;0.50;;;;;;;3.24;100.00;99720.41;10588264;27;20089;-75
2021/11/28 13:15:44;;;;;;;0.35;0.30;;;;;;;2.99;100.00;99730.78;10581414;27;20052;-74
2021/11/28 13:20:47;;;;;;;0.30;0.30;;;;;;;2.82;100.00;99723.53;10598468;27;20061;-75
2021/11/28 13:25:55;;;;;;;1.65;0.85;;;;;;;2.82;100.00;99726.06;10598898;27;20070;-75
2021/11/28 13:30:59;;;;;;;0.40;0.40;;;;;;;2.90;100.00;99733.97;10620459;27;20067;-75
2021/11/28 13:36:05;;;;;;;0.30;0.20;;;;;;;2.78;100.00;99733.59;10587343;28;20495;-75
2021/11/28 13:41:17;;;;;;;0.20;0.20;;;;;;;2.63;100.00;99734.06;10600379;27;20062;-75
2021/11/28 13:46:28;;;;;;;0.32;0.20;;;;;;;2.62;100.00;99724.69;10601875;27;20052;-74
2021/11/28 13:51:59;;;;;;;0.40;0.40;;;;;;;2.69;100.00;99735.94;10596931;27;20413;-74
2021/11/28 13:57:01;;;;;;;0.60;0.50;;;;;;;2.72;100.00;99734.31;10590971;27;20044;-74
2021/11/28 14:02:23;;;;;;;1.38;0.45;;;;;;;2.76;100.00;99750.59;10620693;27;20095;-75
2021/11/28 14:07:34;;;;;;;0.90;0.50;;;;;;;2.75;100.00;99751.41;10600987;27;20494;-76
2021/11/28 14:12:38;;;;;;;0.40;0.40;;;;;;;2.63;100.00;99745.13;10608144;27;20477;-76
2021/11/28 14:17:40;;;;;;;0.40;0.40;;;;;;;2.63;100.00;99742.59;10626061;27;20058;-76
2021/11/28 14:22:46;;;;;;;1.13;0.30;;;;;;;2.60;100.00;99746.72;10611422;27;20047;-76
2021/11/28 14:28:07;;;;;;;3.63;0.50;;;;;;;2.65;100.00;99747.72;10583996;28;20491;-76
2021/11/28 14:33:12;;;;;;;1.67;0.80;;;;;;;2.59;100.00;99750.09;10614145;27;20059;-76
2021/11/28 14:38:19;;;;;;;0.40;0.40;;;;;;;2.60;100.00;99756.94;10622813;27;20094;-76
2021/11/28 14:43:23;;;;;;;0.75;0.60;;;;;;;2.50;100.00;99766.03;10604556;27;20126;-76
2021/11/28 14:48:25;;;;;;;2.92;2.08;;;;;;;2.35;100.00;99774.09;10605901;27;20055;-77
2021/11/28 14:53:27;;;;;;;1.23;1.02;;;;;;;2.40;100.00;99781.88;10597428;27;20087;-76
2021/11/28 14:58:36;;;;;;;0.50;0.47;;;;;;;2.27;100.00;99783.22;10572574;28;20040;-77
2021/11/28 15:04:00;;;;;;;0.32;0.32;;;;;;;2.23;100.00;99783.94;10566876;28;20043;-77
2021/11/28 15:09:15;;;;;;;0.57;0.50;;;;;;;2.28;100.00;99796.81;10568521;28;20047;-76
2021/11/28 15:14:17;;;;;;;3.53;0.80;;;;;;;2.23;100.00;99796.69;10546771;28;20135;-76
2021/11/28 15:19:22;;;;;;;1.48;0.80;;;;;;;2.18;100.00;99803.31;10540608;28;20468;-76
2021/11/28 15:24:23;;;;;;;3.90;3.60;;;;;;;2.11;100.00;99804.81;10562949;28;20043;-76
2021/11/28 15:29:27;;;;;;;3.58;1.27;;;;;;;2.15;100.00;99781.94;10556259;28;20460;-76
2021/11/28 15:34:29;;;;;;;1.55;1.42;;;;;;;2.06;100.00;99778.31;10539713;28;20079;-76
2021/11/28 15:39:35;;;;;;;2.08;1.50;;;;;;;2.04;100.00;99794.34;10565190;28;20079;-77
2021/11/28 15:44:37;;;;;;;2.28;2.08;;;;;;;2.01;100.00;99794.28;10549137;28;20046;-77
2021/11/28 15:49:38;;;;;;;2.75;2.45;;;;;;;2.02;100.00;99799.41;10551744;28;20055;-77
2021/11/28 15:54:40;;;;;;;3.65;2.85;;;;;;;1.95;100.00;99792.41;10562105;28;20052;-77
2021/11/28 15:59:46;;;;;;;2.83;2.45;;;;;;;1.89;100.00;99802.41;10603097;27;20082;-76
2021/11/28 16:04:47;;;;;;;4.63;3.70;;;;;;;1.79;100.00;99800.34;10598658;27;20039;-77
2021/11/28 16:09:49;;;;;;;5.35;3.97;;;;;;;1.68;100.00;99794.03;10598956;27;20059;-76
2021/11/28 16:14:51;;;;;;;4.05;3.20;;;;;;;1.60;100.00;99806.53;10602859;27;20466;-77
2021/11/28 16:19:52;;;;;;;7.40;4.10;;;;;;;1.51;100.00;99807.09;10594941;27;20051;-77
2021/11/28 16:24:59;;;;;;;7.88;4.75;;;;;;;1.39;100.00;99801.56;10621995;27;20043;-76
2021/11/28 16:30:02;;;;;;;5.77;4.50;;;;;;;1.28;100.00;99807.97;10597246;27;20062;-76
2021/11/28 16:35:05;;;;;;;4.63;3.30;;;;;;;1.10;100.00;99812.44;10587566;27;20043;-76
2021/11/28 16:40:10;;;;;;;3.35;2.88;;;;;;;0.96;100.00;99811.91;10579049;27;20096;-75
2021/11/28 16:45:12;;;;;;;3.47;2.85;;;;;;;1.06;100.00;99814.00;10582977;27;20051;-74
2021/11/28 16:50:14;;;;;;;2.80;2.60;;;;;;;0.99;100.00;99817.13;10606833;27;20415;-74
2021/11/28 16:55:15;;;;;;;3.92;2.78;;;;;;;0.83;100.00;99825.03;10598984;27;20051;-74
2021/11/28 17:00:18;;;;;;;4.70;3.35;;;;;;;0.85;100.00;99829.38;10579443;27;20043;-74
2021/11/28 17:05:20;;;;;;;4.78;3.03;;;;;;;0.86;100.00;99831.09;10605309;27;20047;-75
2021/11/28 17:10:23;;;;;;;7.75;3.55;;;;;;;0.86;100.00;99840.41;10614024;27;20054;-73
2021/11/28 17:15:25;;;;;;;3.95;3.45;;;;;;;0.80;100.00;99835.97;10577580;27;20555;-74
2021/11/28 17:20:27;;;;;;;8.00;4.65;;;;;;;0.82;100.00;99847.06;10578410;27;20047;-74
2021/11/28 17:25:46;;;;;;;6.43;4.05;;;;;;;0.75;100.00;99847.66;10612795;27;20098;-75
2021/11/28 17:30:55;;;;;;;4.28;3.45;;;;;;;0.52;100.00;99860.38;10612810;27;20047;-75
2021/11/28 17:35:57;;;;;;;4.80;3.45;;;;;;;0.67;100.00;99866.84;10569936;27;20138;-75
2021/11/28 17:41:00;;;;;;;4.38;3.30;;;;;;;0.44;100.00;99871.03;10609636;28;20066;-75
2021/11/28 17:46:03;;;;;;;11.00;4.22;;;;;;;0.59;100.00;99865.69;10604163;28;20490;-76
2021/11/28 17:51:05;;;;;;;7.68;4.15;;;;;;;0.69;100.00;99861.00;10602903;28;20075;-75
2021/11/28 17:56:07;;;;;;;6.95;5.00;;;;;;;0.73;100.00;99870.47;10593259;28;20043;-75
2021/11/28 18:01:09;;;;;;;7.97;5.70;;;;;;;0.65;100.00;99873.56;10613348;28;20047;-75
2021/11/28 18:06:11;;;;;;;10.00;4.50;;;;;;;0.50;100.00;99874.69;10601986;28;20051;-75
2021/11/28 18:11:14;;;;;;;11.38;5.30;;;;;;;0.54;100.00;99878.22;10575641;28;20163;-75
2021/11/28 18:16:15;;;;;;;8.02;4.85;;;;;;;0.49;100.00;99875.50;10606695;28;20039;-75
2021/11/28 18:21:17;;;;;;;7.30;4.53;;;;;;;0.36;100.00;99892.78;10582739;28;20047;-76
2021/11/28 18:26:20;;;;;;;7.28;5.13;;;;;;;0.24;100.00;99900.78;10608662;27;20389;-76
2021/11/28 18:31:22;;;;;;;7.78;4.93;;;;;;;0.04;100.00;99904.16;10603958;27;20112;-75
2021/11/28 18:36:23;;;;;;;6.68;5.22;;;;;;;0.04;100.00;99911.78;10610787;27;20070;-75
2021/11/28 18:41:26;;;;;;;27.23;10.70;;;;;;;0.00;100.00;99915.91;10616595;27;20503;-76
2021/11/28 18:46:28;;;;;;;13.88;7.65;;;;;;;-0.13;100.00;99908.56;10618097;27;20047;-75
2021/11/28 18:51:30;;;;;;;13.38;9.00;;;;;;;-0.14;100.00;99914.44;10590288;27;20047;-76
2021/11/28 18:56:32;;;;;;;13.85;7.82;;;;;;;-0.22;100.00;99923.44;10612943;27;20066;-76
2021/11/28 19:01:35;;;;;;;10.52;7.03;;;;;;;-0.03;100.00;99931.00;10620913;27;20069;-76
2021/11/28 19:06:37;;;;;;;9.80;6.97;;;;;;;-0.08;100.00;99945.19;10587545;27;20647;-75
2021/11/28 19:11:39;;;;;;;9.77;7.57;;;;;;;-0.24;100.00;99937.72;10581917;27;20566;-75
2021/11/28 19:16:41;;;;;;;8.93;6.82;;;;;;;-0.39;100.00;99943.88;10587142;27;20066;-76
2021/11/28 19:21:43;;;;;;;9.35;6.07;;;;;;;-0.54;100.00;99961.00;10589897;27;20047;-75
2021/11/28 19:26:44;;;;;;;9.93;7.68;;;;;;;-0.47;100.00;99960.44;10582342;27;20483;-75
2021/11/28 19:31:46;;;;;;;12.10;8.23;;;;;;;-0.45;100.00;99963.94;10600304;27;20078;-76
2021/11/28 19:36:50;;;;;;;9.80;6.57;;;;;;;-0.54;100.00;99963.53;10623594;27;20498;-76
2021/11/28 19:41:52;;;;;;;10.90;5.82;;;;;;;-0.30;100.00;99966.28;10585919;27;20138;-76
2021/11/28 19:46:56;;;;;;;10.38;6.47;;;;;;;-0.45;100.00;99968.16;10581499;28;20048;-76
2021/11/28 19:51:57;;;;;;;9.55;6.10;;;;;;;-0.26;100.00;99970.69;10588966;27;20053;-76
2021/11/28 19:57:01;;;;;;;12.63;6.47;;;;;;;-0.34;100.00;99975.44;10623752;27;20055;-76
2021/11/28 20:02:03;;;;;;;15.88;8.20;;;;;;;-0.41;100.00;99987.78;10615438;27;20134;-76
2021/11/28 20:07:05;;;;;;;9.18;7.20;;;;;;;-0.63;100.00;99989.38;10600921;27;20045;-76
2021/11/28 20:12:07;;;;;;;11.50;7.80;;;;;;;-0.62;100.00;99993.66;10618857;27;20051;-75
2021/11/28 20:17:08;;;;;;;9.82;7.60;;;;;;;-0.75;100.00;99996.44;10604434;27;20047;-75
2021/11/28 20:22:12;;;;;;;11.02;8.15;;;;;;;-1.00;100.00;100011.34;10603564;27;20047;-76
2021/11/28 20:27:16;;;;;;;12.20;8.48;;;;;;;-1.12;100.00;100021.78;10600360;27;20058;-76
2021/11/28 20:32:20;;;;;;;17.20;10.43;;;;;;;-1.03;100.00;100021.31;10579258;28;20057;-76
2021/11/28 20:37:22;;;;;;;16.17;9.30;;;;;;;-1.07;100.00;100020.34;10585375;27;20077;-75
2021/11/28 20:42:24;;;;;;;9.93;6.78;;;;;;;-1.02;100.00;100031.56;10583565;27;20507;-75
2021/11/28 20:47:42;;;;;;;9.80;6.13;;;;;;;-1.15;100.00;100041.91;10597382;27;20050;-77
2021/11/28 20:52:45;;;;;;;10.35;7.03;;;;;;;-1.05;100.00;100031.41;10603085;27;20137;-76
2021/11/28 20:57:47;;;;;;;11.85;7.25;;;;;;;-1.19;100.00;100037.47;10590623;27;20043;-76
2021/11/28 21:02:52;;;;;;;8.38;6.60;;;;;;;-1.12;100.00;100044.63;10596642;27;20062;-77
2021/11/28 21:07:55;;;;;;;10.52;6.40;;;;;;;-1.05;100.00;100028.00;10588774;27;20060;-77
2021/11/28 21:12:57;;;;;;;12.75;7.22;;;;;;;-0.99;100.00;100043.53;10599876;27;20158;-74
2021/11/28 21:17:59;;;;;;;11.55;6.97;;;;;;;-1.00;100.00;100044.31;10596577;27;20491;-75
2021/11/28 21:23:01;;;;;;;11.32;6.22;;;;;;;-0.82;100.00;100048.59;10577580;28;20052;-75
2021/11/28 21:28:06;;;;;;;13.55;7.10;;;;;;;-0.73;100.00;100057.47;10585630;27;20407;-75
2021/11/28 21:33:10;;;;;;;9.15;6.75;;;;;;;-0.66;100.00;100059.47;10590418;27;20051;-74
2021/11/28 21:38:12;;;;;;;11.65;6.65;;;;;;;-0.58;100.00;100068.31;10592865;27;20431;-74
2021/11/28 21:43:16;;;;;;;15.93;7.05;;;;;;;-0.66;100.00;100069.63;10577158;28;20365;-75
2021/11/28 21:48:19;;;;;;;11.55;6.47;;;;;;;-0.56;100.00;100077.75;10579485;28;20071;-74
2021/11/28 21:53:22;;;;;;;8.93;6.72;;;;;;;-0.59;100.00;100085.22;10612925;27;20059;-75
2021/11/28 21:58:24;;;;;;;9.00;6.10;;;;;;;-0.74;100.00;100084.50;10593076;28;20048;-84
2021/11/28 22:03:25;;;;;;;9.60;6.35;;;;;;;-0.63;100.00;100090.94;10609318;27;20058;-84
2021/11/28 22:08:27;;;;;;;10.40;5.97;;;;;;;-0.71;100.00;100097.34;10585004;28;20055;-82
2021/11/28 22:13:29;;;;;;;10.20;5.53;;;;;;;-0.49;100.00;100099.22;10584749;28;20053;-83
2021/11/28 22:18:31;;;;;;;12.25;5.65;;;;;;;-0.58;100.00;100099.66;10571272;28;20062;-85
2021/11/28 22:23:33;;;;;;;8.50;5.82;;;;;;;-0.72;100.00;100109.97;10585238;28;20062;-83
2021/11/28 22:28:34;;;;;;;12.88;6.15;;;;;;;-0.60;100.00;100098.72;10593662;27;20054;-85
2021/11/28 22:33:37;;;;;;;13.60;6.97;;;;;;;-0.63;100.00;100123.97;10576183;28;20481;-85
2021/11/28 22:38:38;;;;;;;10.77;5.22;;;;;;;-0.66;100.00;100125.50;10584944;28;20047;-84
2021/11/28 22:43:40;;;;;;;17.33;5.65;;;;;;;-0.65;100.00;100137.41;10585526;28;20043;-83
2021/11/28 22:48:41;;;;;;;7.22;5.18;;;;;;;-0.72;100.00;100135.38;10585561;28;20070;-84
2021/11/28 22:53:44;;;;;;;10.43;5.55;;;;;;;-0.73;100.00;100137.03;10600919;27;20162;-84
2021/11/28 22:58:46;;;;;;;8.93;4.57;;;;;;;-0.64;100.00;100146.75;10557534;28;20085;-84
2021/11/28 23:03:49;;;;;;;3.83;2.38;;;;;;;-0.51;100.00;100149.09;10568458;28;20048;-83
2021/11/28 23:08:51;;;;;;;5.65;3.78;;;;;;;-0.38;100.00;100153.06;10541167;28;20044;-85
2021/11/28 23:13:55;;;;;;;8.05;3.17;;;;;;;-0.38;100.00;100153.94;10540784;28;20483;-84
2021/11/28 23:18:58;;;;;;;5.03;2.70;;;;;;;-0.34;100.00;100150.75;10569788;28;20078;-85